Airport METAR Information

LTBA 310850Z 36024G34KT 9999 SCT012 BKN021 10/07 Q1015 NOSIG

VATSIM Livefeed

Card image cap

ATC Bookings

Position Full Name Date Time (UTC)
LTFJ_GND Kubilay AYDIN 02/04/2020 1230 ‐ 2030
LTBJ_GND Gursel 02/04/2020 1300 ‐ 2100

Card image cap

Active ATC

Sector Full Name Rating Frequency
LTAI_TWR Erdem Efe C1 126.100
LTAI_ATIS Erdem Efe C1 118.270

Blog

Read our latest news and get to know us better.